Time;durP1;ratioP1;P1;durP2;ratioP2;P2;SDS_P1;SDS_P2;PMS_P1;PMS_P2;Temp;Humidity;BMP_temperature;BMP_pressure;BME280_temperature;BME280_humidity;BME280_pressure;Samples;Min_cycle;Max_cycle;Signal;HPM_P1;HPM_P2
2023/09/15 00:01:40;;;;;;;7.32;2.40;;;14.30;99.60;;;;;;5009390;28;20048;-59
2023/09/15 00:04:06;;;;;;;5.65;2.13;;;14.20;99.70;;;;;;5000948;28;20489;-59
2023/09/15 00:06:36;;;;;;;8.88;2.25;;;14.20;99.80;;;;;;4991605;28;20748;-59
2023/09/15 00:09:13;;;;;;;7.47;2.28;;;14.20;99.90;;;;;;5010198;28;20049;-59
2023/09/15 00:11:40;;;;;;;6.78;2.20;;;14.20;99.90;;;;;;5009283;28;20049;-58
2023/09/15 00:14:10;;;;;;;7.82;2.78;;;14.20;99.90;;;;;;5012395;28;20073;-60
2023/09/15 00:16:39;;;;;;;7.90;2.50;;;14.10;99.90;;;;;;5011401;28;20504;-59
2023/09/15 00:19:06;;;;;;;3.65;2.10;;;14.10;99.90;;;;;;5008696;28;20041;-59
2023/09/15 00:21:33;;;;;;;6.47;2.17;;;14.10;99.90;;;;;;5009660;28;20382;-58
2023/09/15 00:24:05;;;;;;;6.45;2.13;;;14.00;99.90;;;;;;5009013;28;20041;-59
2023/09/15 00:26:32;;;;;;;7.70;2.50;;;14.00;99.90;;;;;;5008545;28;20029;-58
2023/09/15 00:28:59;;;;;;;6.38;2.10;;;14.00;99.90;;;;;;5011525;28;20468;-58
2023/09/15 00:31:26;;;;;;;7.63;2.17;;;14.00;99.90;;;;;;5012054;28;20046;-59
2023/09/15 00:33:52;;;;;;;7.15;2.60;;;14.00;99.90;;;;;;5011298;28;20091;-57
2023/09/15 00:36:18;;;;;;;3.45;1.80;;;13.90;99.90;;;;;;5005448;28;20037;-57
2023/09/15 00:38:43;;;;;;;4.75;2.22;;;13.90;99.90;;;;;;5006989;28;20456;-60
2023/09/15 00:41:09;;;;;;;4.75;2.13;;;13.90;99.90;;;;;;5009015;28;20041;-58
2023/09/15 00:43:35;;;;;;;11.98;2.65;;;13.90;99.90;;;;;;5012099;28;20098;-59
2023/09/15 00:46:02;;;;;;;4.22;2.17;;;13.90;99.90;;;;;;5009693;28;20049;-59
2023/09/15 00:48:28;;;;;;;6.60;2.40;;;13.80;99.90;;;;;;5010585;28;20052;-59
2023/09/15 00:50:55;;;;;;;7.57;2.20;;;13.80;99.90;;;;;;5007816;28;20412;-59
2023/09/15 00:53:21;;;;;;;5.93;2.35;;;13.80;99.90;;;;;;4980477;28;20046;-59
2023/09/15 00:55:49;;;;;;;4.25;1.88;;;13.80;99.90;;;;;;4983665;28;20481;-58
2023/09/15 00:58:19;;;;;;;7.20;2.50;;;13.80;99.90;;;;;;5009731;28;20068;-59
2023/09/15 01:00:46;;;;;;;8.55;2.28;;;13.70;99.90;;;;;;5007928;28;20134;-60
2023/09/15 01:03:14;;;;;;;4.15;2.10;;;13.70;99.90;;;;;;5008476;28;20390;-59
2023/09/15 01:05:42;;;;;;;8.20;2.65;;;13.70;99.90;;;;;;5010020;28;20033;-59
2023/09/15 01:08:08;;;;;;;7.68;2.47;;;13.70;99.90;;;;;;4995433;28;20085;-59
2023/09/15 01:10:33;;;;;;;6.93;2.50;;;13.60;99.90;;;;;;5008156;28;20485;-59
2023/09/15 01:13:00;;;;;;;4.35;2.42;;;13.60;99.90;;;;;;5005773;28;20079;-59
2023/09/15 01:15:56;;;;;;;9.73;3.13;;;13.60;99.90;;;;;;5008726;28;20077;-58
2023/09/15 01:19:02;;;;;;;7.80;2.50;;;13.60;99.90;;;;;;4996479;28;20045;-58
2023/09/15 01:21:42;;;;;;;7.18;2.80;;;13.60;99.90;;;;;;4984980;28;20479;-58
2023/09/15 01:24:10;;;;;;;7.35;2.60;;;13.50;99.90;;;;;;5007210;28;21333;-58
2023/09/15 01:26:54;;;;;;;5.88;2.40;;;13.50;99.90;;;;;;5008046;28;20037;-59
2023/09/15 01:29:43;;;;;;;6.28;2.75;;;13.50;99.90;;;;;;5004873;28;20508;-59
2023/09/15 01:32:12;;;;;;;5.90;2.60;;;13.40;99.90;;;;;;5009886;28;20049;-60
2023/09/15 01:34:39;;;;;;;5.38;2.38;;;13.40;99.90;;;;;;5012157;28;20112;-59
2023/09/15 01:37:04;;;;;;;6.90;2.60;;;13.40;99.90;;;;;;5008153;28;20444;-58
2023/09/15 01:39:30;;;;;;;6.78;2.53;;;13.30;99.90;;;;;;5005057;28;20149;-59
2023/09/15 01:42:00;;;;;;;9.13;2.88;;;13.30;99.90;;;;;;5008108;28;20042;-58
2023/09/15 01:44:27;;;;;;;4.68;2.58;;;13.30;99.90;;;;;;5008372;28;20128;-59
2023/09/15 01:46:53;;;;;;;9.07;2.65;;;13.30;99.90;;;;;;5009907;28;20438;-59
2023/09/15 01:49:20;;;;;;;6.90;2.60;;;13.30;99.90;;;;;;5008880;28;20045;-59
2023/09/15 01:51:47;;;;;;;10.52;2.60;;;13.20;99.90;;;;;;5010609;28;20045;-58
2023/09/15 01:54:14;;;;;;;8.27;2.40;;;13.20;99.90;;;;;;5011971;28;20048;-57
2023/09/15 01:56:40;;;;;;;10.13;3.00;;;13.20;99.90;;;;;;5011051;28;20457;-58
2023/09/15 01:59:06;;;;;;;6.55;2.65;;;13.20;99.90;;;;;;5010973;28;20037;-59
2023/09/15 02:01:32;;;;;;;5.03;2.70;;;13.20;99.90;;;;;;5013484;28;20053;-58
2023/09/15 02:03:57;;;;;;;8.65;2.50;;;13.20;99.90;;;;;;4996348;28;20045;-59
2023/09/15 02:06:23;;;;;;;9.98;2.63;;;13.20;99.90;;;;;;5013507;28;20080;-58
2023/09/15 02:08:49;;;;;;;7.05;2.65;;;13.20;99.90;;;;;;5010438;28;20034;-58
2023/09/15 02:11:15;;;;;;;6.40;2.78;;;13.10;99.90;;;;;;4995805;28;20493;-58
2023/09/15 02:13:42;;;;;;;8.38;3.10;;;13.10;99.90;;;;;;4999924;28;20044;-59
2023/09/15 02:16:08;;;;;;;7.35;2.80;;;13.10;99.90;;;;;;5015479;28;20187;-59
2023/09/15 02:18:33;;;;;;;9.73;2.90;;;13.10;99.90;;;;;;4997554;28;20037;-60
2023/09/15 02:21:00;;;;;;;7.63;2.70;;;13.10;99.90;;;;;;5014328;28;20058;-60
2023/09/15 02:23:26;;;;;;;7.45;3.35;;;13.00;99.90;;;;;;5014055;28;20096;-60
2023/09/15 02:25:52;;;;;;;7.50;3.08;;;13.00;99.90;;;;;;5017711;28;20044;-59
2023/09/15 02:28:21;;;;;;;4.82;2.67;;;13.00;99.90;;;;;;5012270;28;20060;-58
2023/09/15 02:30:47;;;;;;;12.55;3.40;;;13.00;99.90;;;;;;4983332;28;20073;-58
2023/09/15 02:33:13;;;;;;;6.22;2.70;;;12.90;99.90;;;;;;5014695;28;20048;-58
2023/09/15 02:35:39;;;;;;;9.32;3.47;;;12.90;99.90;;;;;;5014807;28;20033;-59
2023/09/15 02:38:06;;;;;;;8.60;2.25;;;12.90;99.90;;;;;;5014041;28;20139;-56
2023/09/15 02:40:31;;;;;;;5.80;2.83;;;12.90;99.90;;;;;;5015932;28;20076;-57
2023/09/15 02:42:57;;;;;;;7.88;2.63;;;12.90;99.90;;;;;;4992992;28;20066;-59
2023/09/15 02:45:23;;;;;;;6.35;3.00;;;12.90;99.90;;;;;;5013669;28;20555;-59
2023/09/15 02:47:49;;;;;;;5.63;2.75;;;12.90;99.90;;;;;;5012507;28;20485;-58
2023/09/15 02:50:15;;;;;;;6.55;2.80;;;12.90;99.90;;;;;;5008369;28;20433;-58
2023/09/15 02:52:40;;;;;;;5.53;2.58;;;12.80;99.90;;;;;;5015566;28;20073;-59
2023/09/15 02:55:08;;;;;;;9.50;2.65;;;12.80;99.90;;;;;;5013307;28;20038;-59
2023/09/15 02:57:34;;;;;;;13.05;2.78;;;12.80;99.90;;;;;;5011942;28;20071;-59
2023/09/15 02:59:59;;;;;;;5.78;2.70;;;12.80;99.90;;;;;;5014518;28;20387;-58
2023/09/15 03:02:25;;;;;;;11.75;2.80;;;12.80;99.90;;;;;;5011019;28;20042;-59
2023/09/15 03:04:51;;;;;;;8.45;2.75;;;12.80;99.90;;;;;;5013142;28;20362;-58
2023/09/15 03:07:17;;;;;;;6.47;2.80;;;12.80;99.90;;;;;;5014239;28;20038;-59
2023/09/15 03:09:43;;;;;;;10.50;2.97;;;12.80;99.90;;;;;;5011720;28;20044;-60
2023/09/15 03:12:09;;;;;;;6.30;2.63;;;12.80;99.90;;;;;;5014380;28;20385;-59
2023/09/15 03:14:35;;;;;;;6.80;2.92;;;12.80;99.90;;;;;;5013326;28;20400;-57
2023/09/15 03:17:00;;;;;;;6.78;2.60;;;12.80;99.90;;;;;;5016426;28;20041;-59
2023/09/15 03:19:26;;;;;;;11.00;3.15;;;12.70;99.90;;;;;;5011787;28;20168;-58
2023/09/15 03:21:53;;;;;;;8.10;2.85;;;12.70;99.90;;;;;;5014206;28;20055;-59
2023/09/15 03:24:19;;;;;;;6.97;3.05;;;12.70;99.90;;;;;;5015068;28;20119;-58
2023/09/15 03:26:45;;;;;;;4.90;2.97;;;12.70;99.90;;;;;;5013949;28;20037;-59
2023/09/15 03:29:11;;;;;;;7.07;2.83;;;12.70;99.90;;;;;;5014033;28;20050;-59
2023/09/15 03:31:37;;;;;;;5.93;2.88;;;12.70;99.90;;;;;;5013707;28;20563;-59
2023/09/15 03:34:03;;;;;;;8.27;3.10;;;12.70;99.90;;;;;;4998105;28;20076;-58
2023/09/15 03:36:29;;;;;;;5.93;3.08;;;12.70;99.90;;;;;;5010860;28;20128;-57
2023/09/15 03:38:56;;;;;;;9.68;2.80;;;12.60;99.90;;;;;;5012198;28;20049;-58
2023/09/15 03:41:25;;;;;;;7.93;3.15;;;12.60;99.90;;;;;;5012947;28;20591;-60
2023/09/15 03:43:51;;;;;;;4.53;2.63;;;12.60;99.90;;;;;;5014310;28;20045;-59
2023/09/15 03:46:17;;;;;;;4.97;3.20;;;12.60;99.90;;;;;;5011603;28;20517;-59
2023/09/15 03:48:43;;;;;;;9.18;3.05;;;12.60;99.90;;;;;;5012315;28;20634;-59
2023/09/15 03:51:09;;;;;;;6.70;3.10;;;12.60;99.90;;;;;;5012718;28;20042;-59
2023/09/15 03:53:35;;;;;;;4.90;2.92;;;12.50;99.90;;;;;;5009978;28;20048;-59
2023/09/15 03:56:00;;;;;;;5.43;3.17;;;12.50;99.90;;;;;;5014429;28;20351;-59
2023/09/15 03:58:28;;;;;;;7.78;3.10;;;12.50;99.90;;;;;;5014291;28;20042;-59
2023/09/15 04:00:53;;;;;;;8.80;3.17;;;12.50;99.90;;;;;;5009587;28;20119;-58
2023/09/15 04:03:20;;;;;;;7.57;3.45;;;12.50;99.90;;;;;;5011571;28;20041;-59
2023/09/15 04:05:46;;;;;;;5.75;3.25;;;12.50;99.90;;;;;;5012606;28;20052;-58
2023/09/15 04:08:13;;;;;;;9.27;3.80;;;12.50;99.90;;;;;;5013394;28;20041;-58
2023/09/15 04:10:39;;;;;;;10.50;3.80;;;12.50;99.90;;;;;;5012529;28;20096;-58
2023/09/15 04:13:04;;;;;;;12.70;3.78;;;12.40;99.90;;;;;;5013980;28;20087;-59
2023/09/15 04:15:30;;;;;;;8.80;3.55;;;12.40;99.90;;;;;;5012869;28;20045;-59
2023/09/15 04:17:56;;;;;;;7.20;3.70;;;12.40;99.90;;;;;;5012422;28;20072;-58
2023/09/15 04:20:22;;;;;;;10.07;4.25;;;12.40;99.90;;;;;;5011904;28;20131;-59
2023/09/15 04:22:49;;;;;;;7.07;3.63;;;12.30;99.90;;;;;;5012728;28;20033;-59
2023/09/15 04:25:14;;;;;;;7.70;3.95;;;12.40;99.90;;;;;;5012202;28;20616;-59
2023/09/15 04:27:40;;;;;;;6.85;3.70;;;12.30;99.90;;;;;;5010271;28;20443;-59
2023/09/15 04:30:09;;;;;;;5.10;3.30;;;12.30;99.90;;;;;;5014361;28;20042;-59
2023/09/15 04:32:35;;;;;;;9.38;4.28;;;12.30;99.90;;;;;;5011539;28;20457;-57
2023/09/15 04:35:01;;;;;;;8.00;3.55;;;12.30;99.90;;;;;;5014761;28;20041;-56
2023/09/15 04:37:26;;;;;;;8.77;4.00;;;12.30;99.90;;;;;;5013619;28;20053;-59
2023/09/15 04:39:54;;;;;;;12.13;4.40;;;12.30;99.90;;;;;;5005935;28;20033;-57
2023/09/15 04:42:20;;;;;;;16.92;4.40;;;12.30;99.90;;;;;;5012212;28;20045;-59
2023/09/15 04:44:45;;;;;;;9.68;4.07;;;12.20;99.90;;;;;;5011538;28;20045;-59
2023/09/15 04:47:13;;;;;;;10.55;3.90;;;12.20;99.90;;;;;;5011937;28;20037;-59
2023/09/15 04:49:39;;;;;;;10.30;4.22;;;12.30;99.90;;;;;;5026580;28;20052;-58
2023/09/15 04:52:05;;;;;;;8.77;4.20;;;12.20;99.90;;;;;;4993560;28;20045;-56
2023/09/15 04:54:31;;;;;;;9.80;3.95;;;12.20;99.90;;;;;;5013348;28;20504;-57
2023/09/15 04:56:57;;;;;;;11.23;4.20;;;12.20;99.90;;;;;;5011129;28;20061;-58
2023/09/15 04:59:25;;;;;;;11.45;4.70;;;12.20;99.90;;;;;;5011963;28;20532;-58
2023/09/15 05:01:51;;;;;;;9.60;3.67;;;12.20;99.90;;;;;;5010906;28;20186;-59
2023/09/15 05:04:19;;;;;;;11.25;4.20;;;12.20;99.90;;;;;;5007917;28;20034;-59
2023/09/15 05:06:44;;;;;;;7.85;4.28;;;12.20;99.90;;;;;;5009622;28;20449;-58
2023/09/15 05:09:10;;;;;;;9.25;4.88;;;12.20;99.90;;;;;;4995397;28;20042;-59
2023/09/15 05:11:37;;;;;;;10.68;4.30;;;12.20;99.90;;;;;;5011619;28;20478;-58
2023/09/15 05:14:03;;;;;;;8.38;4.50;;;12.20;99.90;;;;;;5014942;28;20385;-59
2023/09/15 05:16:29;;;;;;;10.90;4.38;;;12.10;99.90;;;;;;5013402;28;20084;-59
2023/09/15 05:18:55;;;;;;;9.95;4.40;;;12.10;99.90;;;;;;5005675;28;20045;-59
2023/09/15 05:21:21;;;;;;;12.15;4.57;;;12.10;99.90;;;;;;4995523;28;20107;-58
2023/09/15 05:23:46;;;;;;;9.32;4.65;;;12.10;99.90;;;;;;5011401;28;20042;-58
2023/09/15 05:26:12;;;;;;;11.18;4.93;;;12.10;99.90;;;;;;5029887;28;20037;-57
2023/09/15 05:28:38;;;;;;;7.75;4.53;;;12.10;99.90;;;;;;4998711;28;20042;-58
2023/09/15 05:31:04;;;;;;;15.13;5.10;;;12.10;99.90;;;;;;4997571;28;20489;-58
2023/09/15 05:33:29;;;;;;;11.13;5.13;;;12.10;99.90;;;;;;5014447;28;20108;-58
2023/09/15 05:35:56;;;;;;;12.02;4.78;;;12.10;99.90;;;;;;5009130;28;20581;-58
2023/09/15 05:38:23;;;;;;;8.32;4.50;;;12.10;99.90;;;;;;5009023;28;20399;-59
2023/09/15 05:40:49;;;;;;;8.70;5.03;;;12.00;99.90;;;;;;5012505;28;20038;-58
2023/09/15 05:43:16;;;;;;;12.77;5.20;;;12.10;99.90;;;;;;5009284;28;20037;-56
2023/09/15 05:45:43;;;;;;;9.35;4.88;;;12.00;99.90;;;;;;4993339;28;20108;-59
2023/09/15 05:48:12;;;;;;;11.15;5.40;;;12.00;99.90;;;;;;5007392;28;20046;-59
2023/09/15 05:50:39;;;;;;;10.63;4.85;;;12.10;99.90;;;;;;5010852;28;20045;-59
2023/09/15 05:53:05;;;;;;;10.38;4.70;;;12.10;99.90;;;;;;5016722;28;20460;-58
2023/09/15 05:55:31;;;;;;;6.80;4.93;;;12.10;99.90;;;;;;5013632;28;20037;-58
2023/09/15 05:57:57;;;;;;;9.25;5.32;;;12.10;99.90;;;;;;5015411;28;20439;-57
2023/09/15 06:00:23;;;;;;;11.10;5.03;;;12.10;99.90;;;;;;5009493;28;20501;-57
2023/09/15 06:02:49;;;;;;;10.57;5.65;;;12.10;99.90;;;;;;5011673;28;20057;-59
2023/09/15 06:05:16;;;;;;;10.30;4.88;;;12.10;99.90;;;;;;5017092;28;20048;-59
2023/09/15 06:07:41;;;;;;;12.02;4.97;;;12.10;99.90;;;;;;5009753;28;20076;-57
2023/09/15 06:10:07;;;;;;;12.07;4.85;;;12.10;99.90;;;;;;5013249;28;20787;-59
2023/09/15 06:12:33;;;;;;;9.60;4.80;;;12.20;99.90;;;;;;5017008;28;20040;-57
2023/09/15 06:14:59;;;;;;;8.55;4.80;;;12.20;99.90;;;;;;4999613;28;20037;-59
2023/09/15 06:17:24;;;;;;;9.52;5.00;;;12.20;99.90;;;;;;4992357;28;20050;-57
2023/09/15 06:19:51;;;;;;;13.27;5.35;;;12.20;99.90;;;;;;5012395;28;20132;-57
2023/09/15 06:22:17;;;;;;;9.38;5.47;;;12.20;99.90;;;;;;5014961;28;20772;-59
2023/09/15 06:24:43;;;;;;;14.50;5.70;;;12.30;99.90;;;;;;5012571;28;20073;-59
2023/09/15 06:27:08;;;;;;;14.60;4.93;;;12.30;99.90;;;;;;5013121;28;20711;-58
2023/09/15 06:29:34;;;;;;;12.65;5.63;;;12.30;99.90;;;;;;5012403;28;20701;-56
2023/09/15 06:32:00;;;;;;;10.20;5.13;;;12.30;99.90;;;;;;5009163;28;20060;-58
2023/09/15 06:34:26;;;;;;;12.30;5.40;;;12.40;99.90;;;;;;4993028;28;20479;-56
2023/09/15 06:36:51;;;;;;;12.93;5.45;;;12.40;99.90;;;;;;5011528;28;20041;-60
2023/09/15 06:39:18;;;;;;;14.43;5.40;;;12.50;99.90;;;;;;5015017;28;20156;-57
2023/09/15 06:41:45;;;;;;;13.30;4.93;;;12.50;99.90;;;;;;5014499;28;20076;-56
2023/09/15 06:44:11;;;;;;;15.32;4.90;;;12.50;99.90;;;;;;5017049;28;20073;-60
2023/09/15 06:46:37;;;;;;;12.75;4.90;;;12.60;99.90;;;;;;5017623;28;20037;-59
2023/09/15 06:49:02;;;;;;;8.90;5.18;;;12.60;99.90;;;;;;4997537;28;20091;-59
2023/09/15 06:51:28;;;;;;;12.52;5.28;;;12.70;99.90;;;;;;5011139;28;20053;-58
2023/09/15 06:53:54;;;;;;;12.38;5.82;;;12.70;99.90;;;;;;5008290;28;20059;-58
2023/09/15 06:56:20;;;;;;;15.27;5.53;;;12.70;99.90;;;;;;5015991;28;20411;-58
2023/09/15 06:58:47;;;;;;;9.27;5.22;;;12.80;99.90;;;;;;5017155;28;20527;-58
2023/09/15 07:01:13;;;;;;;11.60;5.15;;;12.80;99.90;;;;;;4996500;28;20053;-59
2023/09/15 07:03:39;;;;;;;10.63;5.53;;;12.90;99.90;;;;;;5013718;28;20041;-58
2023/09/15 07:06:05;;;;;;;12.50;5.20;;;12.90;99.90;;;;;;5015052;28;20044;-58
2023/09/15 07:08:30;;;;;;;10.57;5.22;;;13.00;99.90;;;;;;5008102;28;20029;-58
2023/09/15 07:10:56;;;;;;;14.38;5.22;;;13.00;99.90;;;;;;5012681;28;20389;-58
2023/09/15 07:13:22;;;;;;;10.05;5.22;;;13.10;99.90;;;;;;5016057;28;20048;-57
2023/09/15 07:15:48;;;;;;;8.45;5.40;;;13.10;99.90;;;;;;5015272;28;20129;-59
2023/09/15 07:18:14;;;;;;;13.18;5.47;;;13.20;99.90;;;;;;5010272;28;20046;-58
2023/09/15 07:20:40;;;;;;;8.88;4.95;;;13.30;99.90;;;;;;5015453;28;20133;-57
2023/09/15 07:23:05;;;;;;;9.73;4.93;;;13.30;99.90;;;;;;4997670;28;20703;-57
2023/09/15 07:25:31;;;;;;;13.48;5.85;;;13.40;99.90;;;;;;5015581;28;20037;-58
2023/09/15 07:27:57;;;;;;;11.68;4.78;;;13.50;99.90;;;;;;5011511;28;20404;-56
2023/09/15 07:30:22;;;;;;;10.57;5.07;;;13.50;99.90;;;;;;5006004;28;20037;-59
2023/09/15 07:32:48;;;;;;;10.25;5.00;;;13.70;99.90;;;;;;5005861;28;20397;-58
2023/09/15 07:35:14;;;;;;;9.45;4.85;;;13.70;99.90;;;;;;5012782;28;20591;-59
2023/09/15 07:37:41;;;;;;;9.25;5.00;;;13.80;99.90;;;;;;5012323;28;20048;-58
2023/09/15 07:40:07;;;;;;;13.48;4.90;;;13.90;99.90;;;;;;5009819;28;20057;-56
2023/09/15 07:42:34;;;;;;;11.73;4.97;;;14.00;99.90;;;;;;5006833;28;20041;-58
2023/09/15 07:45:00;;;;;;;7.50;4.53;;;14.10;99.90;;;;;;5013747;28;20468;-58
2023/09/15 07:47:26;;;;;;;11.52;4.78;;;14.20;99.90;;;;;;5010412;28;20037;-56
2023/09/15 07:49:52;;;;;;;8.45;4.50;;;14.30;99.90;;;;;;5007006;28;20142;-57
2023/09/15 07:52:18;;;;;;;12.35;4.95;;;14.50;99.90;;;;;;5013699;28;20064;-59
2023/09/15 07:54:45;;;;;;;10.50;4.32;;;14.60;99.90;;;;;;5008997;28;20508;-59
2023/09/15 07:57:11;;;;;;;8.73;4.13;;;14.70;99.90;;;;;;5009470;28;20875;-58
2023/09/15 07:59:37;;;;;;;11.07;4.97;;;14.90;99.90;;;;;;5012514;28;20037;-57
2023/09/15 08:02:06;;;;;;;7.20;3.90;;;15.00;99.90;;;;;;4988813;28;20577;-59
2023/09/15 08:04:31;;;;;;;9.05;4.38;;;15.10;99.90;;;;;;5003142;28;20048;-59
2023/09/15 08:06:57;;;;;;;11.82;4.13;;;15.20;99.90;;;;;;5004030;28;20045;-59
2023/09/15 08:09:23;;;;;;;11.82;4.10;;;15.40;99.90;;;;;;4999311;28;21413;-58
2023/09/15 08:11:49;;;;;;;5.57;3.38;;;15.50;99.90;;;;;;5007155;28;20052;-57
2023/09/15 08:14:18;;;;;;;8.48;3.70;;;15.60;99.90;;;;;;5005766;28;20576;-58
2023/09/15 08:16:46;;;;;;;7.07;3.88;;;15.70;99.90;;;;;;5006393;28;20048;-56
2023/09/15 08:19:12;;;;;;;8.70;3.70;;;15.90;99.90;;;;;;4991722;28;20034;-58
2023/09/15 08:21:38;;;;;;;7.88;3.60;;;16.00;99.90;;;;;;5001739;28;20123;-58
2023/09/15 08:24:04;;;;;;;6.10;3.33;;;16.10;99.90;;;;;;5008602;28;20540;-58
2023/09/15 08:26:30;;;;;;;8.15;3.70;;;16.20;99.90;;;;;;5008396;28;20038;-59
2023/09/15 08:28:56;;;;;;;7.57;3.53;;;16.30;99.90;;;;;;5007266;28;20041;-57
2023/09/15 08:31:21;;;;;;;6.82;3.40;;;16.50;99.90;;;;;;4987576;28;20508;-58
2023/09/15 08:33:47;;;;;;;6.55;3.78;;;16.60;99.90;;;;;;5005795;28;20034;-59
2023/09/15 08:36:13;;;;;;;7.65;3.38;;;16.70;99.90;;;;;;5005443;28;20037;-58
2023/09/15 08:38:38;;;;;;;10.85;3.40;;;16.90;99.90;;;;;;5007303;28;20045;-58
2023/09/15 08:41:12;;;;;;;5.65;3.17;;;17.00;99.90;;;;;;5006311;28;20087;-58
2023/09/15 08:43:38;;;;;;;5.97;2.80;;;17.10;99.90;;;;;;5002392;28;20060;-58
2023/09/15 08:46:06;;;;;;;6.40;3.28;;;17.20;99.90;;;;;;5002951;28;20047;-57
2023/09/15 08:48:38;;;;;;;9.38;3.50;;;17.40;99.90;;;;;;5001463;28;20503;-57
2023/09/15 08:51:05;;;;;;;10.38;3.40;;;17.60;99.90;;;;;;5003351;28;20045;-58
2023/09/15 08:53:32;;;;;;;4.88;3.13;;;17.70;99.90;;;;;;5002297;28;20106;-57
2023/09/15 08:55:58;;;;;;;7.47;3.33;;;17.80;99.90;;;;;;5010238;28;20053;-58
2023/09/15 08:58:24;;;;;;;9.32;3.50;;;18.00;99.90;;;;;;5005603;28;20041;-59
2023/09/15 09:00:53;;;;;;;6.55;3.08;;;18.10;99.90;;;;;;5014242;28;20045;-57
2023/09/15 09:03:23;;;;;;;7.25;3.20;;;18.30;99.90;;;;;;5012801;28;20052;-59
2023/09/15 09:05:50;;;;;;;6.88;2.97;;;18.40;99.90;;;;;;5009208;28;20033;-59
2023/09/15 09:08:20;;;;;;;9.45;2.80;;;18.50;99.90;;;;;;5008442;28;20037;-58
2023/09/15 09:10:49;;;;;;;11.18;3.20;;;18.70;99.90;;;;;;5012560;28;20500;-59
2023/09/15 09:13:15;;;;;;;7.13;2.92;;;18.80;99.90;;;;;;5010845;28;20045;-59
2023/09/15 09:15:42;;;;;;;7.47;3.20;;;19.00;99.90;;;;;;5008615;28;20119;-58
2023/09/15 09:18:18;;;;;;;5.13;2.80;;;19.10;99.90;;;;;;5003065;28;20076;-58
2023/09/15 09:20:46;;;;;;;9.32;3.13;;;19.20;99.90;;;;;;4961377;28;20054;-56
2023/09/15 09:23:12;;;;;;;8.77;3.47;;;19.40;99.90;;;;;;5000616;28;20062;-58
2023/09/15 09:25:39;;;;;;;5.63;2.90;;;19.50;99.70;;;;;;5007021;28;20076;-58
2023/09/15 09:28:05;;;;;;;7.25;2.80;;;19.60;99.50;;;;;;5009874;28;20076;-57
2023/09/15 09:30:31;;;;;;;5.75;2.72;;;19.70;99.30;;;;;;5006168;28;20049;-59
2023/09/15 09:32:57;;;;;;;8.07;3.15;;;19.80;98.80;;;;;;5006300;28;20119;-58
2023/09/15 09:35:24;;;;;;;8.07;2.60;;;19.80;98.50;;;;;;5004680;28;20137;-58
2023/09/15 09:37:52;;;;;;;5.63;2.88;;;20.00;98.10;;;;;;5005252;28;20040;-55
2023/09/15 09:40:18;;;;;;;5.30;2.83;;;20.00;97.80;;;;;;5005404;28;20045;-59
2023/09/15 09:42:45;;;;;;;9.48;3.78;;;20.10;97.40;;;;;;5011251;28;20059;-58
2023/09/15 09:45:12;;;;;;;6.65;2.95;;;20.20;97.30;;;;;;5005743;28;20069;-59
2023/09/15 09:47:37;;;;;;;8.13;2.70;;;20.30;97.20;;;;;;4995949;28;20056;-60
2023/09/15 09:50:05;;;;;;;10.48;3.10;;;20.40;96.70;;;;;;5008852;28;20049;-58
2023/09/15 09:52:31;;;;;;;6.78;3.10;;;20.60;96.40;;;;;;5012558;28;20045;-59
2023/09/15 09:55:00;;;;;;;7.07;2.40;;;20.70;96.40;;;;;;5012732;28;20106;-59
2023/09/15 09:57:26;;;;;;;8.48;3.17;;;20.80;96.00;;;;;;4998623;28;20053;-57
2023/09/15 09:59:53;;;;;;;7.60;2.70;;;21.00;95.90;;;;;;5007948;28;20056;-60
2023/09/15 10:02:18;;;;;;;7.35;2.90;;;21.20;95.70;;;;;;4988629;28;20052;-57
2023/09/15 10:04:45;;;;;;;7.00;3.17;;;21.30;94.80;;;;;;4988897;28;20038;-59
2023/09/15 10:07:11;;;;;;;6.80;3.00;;;21.40;94.30;;;;;;5005821;28;20383;-58
2023/09/15 10:09:38;;;;;;;6.85;3.30;;;21.50;94.30;;;;;;5005978;28;20041;-59
2023/09/15 10:12:04;;;;;;;5.40;3.30;;;21.70;93.60;;;;;;5007911;28;20469;-59
2023/09/15 10:14:31;;;;;;;5.90;3.53;;;21.70;93.20;;;;;;5009897;28;20041;-57
2023/09/15 10:16:58;;;;;;;7.13;3.70;;;21.90;93.00;;;;;;5012577;28;20045;-59
2023/09/15 10:19:25;;;;;;;7.70;3.50;;;21.90;92.10;;;;;;5012730;28;20172;-59
2023/09/15 10:21:51;;;;;;;10.23;3.80;;;22.00;91.80;;;;;;5017661;28;20513;-59
2023/09/15 10:24:17;;;;;;;8.50;3.65;;;22.00;91.20;;;;;;5014870;28;20038;-59
2023/09/15 10:26:43;;;;;;;10.27;3.63;;;22.10;90.70;;;;;;5017298;28;20375;-58
2023/09/15 10:29:13;;;;;;;6.55;3.55;;;22.20;90.60;;;;;;5014205;28;20056;-58
2023/09/15 10:31:46;;;;;;;8.55;3.50;;;22.30;90.10;;;;;;5013354;28;20049;-57
2023/09/15 10:34:13;;;;;;;8.15;3.60;;;22.40;90.00;;;;;;5010751;28;20041;-60
2023/09/15 10:36:40;;;;;;;5.60;3.40;;;22.40;88.70;;;;;;5014980;28;20552;-59
2023/09/15 10:39:19;;;;;;;7.10;3.47;;;22.50;88.70;;;;;;5017415;28;20132;-60
2023/09/15 10:41:45;;;;;;;7.15;3.30;;;22.60;89.30;;;;;;5017759;28;20049;-60
2023/09/15 10:44:12;;;;;;;6.50;3.40;;;22.70;88.80;;;;;;5014444;28;20052;-60
2023/09/15 10:46:39;;;;;;;8.88;2.97;;;22.90;87.70;;;;;;5015110;28;20073;-57
2023/09/15 10:49:19;;;;;;;7.93;3.42;;;23.00;86.40;;;;;;5015489;28;20036;-60
2023/09/15 10:51:54;;;;;;;7.15;3.30;;;23.10;84.70;;;;;;5016679;28;20042;-58
2023/09/15 10:54:20;;;;;;;6.80;3.40;;;23.10;84.60;;;;;;5012854;28;20505;-55
2023/09/15 10:56:48;;;;;;;8.98;3.60;;;23.10;83.40;;;;;;5012610;28;20590;-59
2023/09/15 10:59:16;;;;;;;6.93;3.33;;;23.10;82.10;;;;;;5012702;28;20046;-59
2023/09/15 11:01:43;;;;;;;6.15;3.08;;;23.10;82.00;;;;;;5008714;28;21301;-56
2023/09/15 11:04:12;;;;;;;6.70;3.08;;;23.20;82.90;;;;;;5011620;28;20172;-60
2023/09/15 11:06:39;;;;;;;9.13;3.00;;;23.40;83.40;;;;;;5011751;28;20061;-59
2023/09/15 11:09:06;;;;;;;6.32;3.42;;;23.50;83.70;;;;;;5016648;28;20072;-57
2023/09/15 11:11:32;;;;;;;7.72;3.13;;;23.60;82.60;;;;;;5015855;28;20034;-59
2023/09/15 11:13:59;;;;;;;8.18;3.13;;;23.80;83.00;;;;;;5007127;28;20045;-59
2023/09/15 11:16:27;;;;;;;7.38;2.50;;;24.10;83.40;;;;;;4990258;28;20160;-56
2023/09/15 11:18:54;;;;;;;4.78;2.60;;;24.30;82.70;;;;;;5009196;28;20509;-59
2023/09/15 11:21:23;;;;;;;10.18;2.53;;;24.40;82.10;;;;;;5006682;28;20057;-58
2023/09/15 11:23:50;;;;;;;5.78;2.28;;;24.50;80.90;;;;;;5012254;28;20038;-59
2023/09/15 11:26:16;;;;;;;7.07;2.50;;;24.60;79.50;;;;;;4997684;28;20046;-60
2023/09/15 11:28:42;;;;;;;5.07;2.50;;;24.70;79.50;;;;;;5012121;28;20049;-59
2023/09/15 11:31:09;;;;;;;5.05;2.80;;;24.80;79.10;;;;;;5011959;28;20401;-59
2023/09/15 11:33:36;;;;;;;9.52;2.65;;;24.80;78.10;;;;;;5010492;28;20156;-61
2023/09/15 11:36:02;;;;;;;8.35;2.45;;;24.90;77.80;;;;;;5014844;28;20508;-60
2023/09/15 11:38:28;;;;;;;5.55;2.67;;;25.00;77.60;;;;;;5010769;28;20099;-60
2023/09/15 11:40:54;;;;;;;6.38;2.30;;;25.10;75.80;;;;;;5013282;28;20041;-60
2023/09/15 11:43:23;;;;;;;8.30;2.75;;;25.20;76.90;;;;;;5014489;28;20042;-60
2023/09/15 11:45:51;;;;;;;4.55;2.45;;;25.30;75.80;;;;;;5012269;28;20135;-61
2023/09/15 11:48:18;;;;;;;5.10;2.38;;;25.40;76.00;;;;;;5014387;28;20084;-60
2023/09/15 11:50:46;;;;;;;7.75;2.75;;;25.60;76.20;;;;;;5002226;28;20050;-60
2023/09/15 11:53:12;;;;;;;7.18;2.50;;;25.80;74.50;;;;;;5015483;28;20045;-60
2023/09/15 11:55:38;;;;;;;6.20;2.40;;;25.90;74.80;;;;;;5014364;28;20563;-60
2023/09/15 11:58:04;;;;;;;5.05;2.28;;;26.00;74.40;;;;;;5013960;28;20049;-60
2023/09/15 12:00:32;;;;;;;4.82;2.20;;;26.10;73.50;;;;;;5016507;28;20041;-59
2023/09/15 12:02:59;;;;;;;5.13;2.30;;;26.00;72.40;;;;;;5016015;28;20133;-59
2023/09/15 12:05:29;;;;;;;5.65;2.53;;;25.90;71.90;;;;;;5014650;28;20507;-60
2023/09/15 12:07:55;;;;;;;4.75;2.50;;;25.80;71.50;;;;;;4997455;28;20140;-59
2023/09/15 12:10:22;;;;;;;4.35;2.42;;;25.70;71.00;;;;;;5014571;28;20057;-60
2023/09/15 12:12:49;;;;;;;7.15;2.58;;;25.80;71.20;;;;;;5012076;28;20408;-59
2023/09/15 12:15:16;;;;;;;5.50;2.15;;;25.70;70.20;;;;;;5010524;28;20049;-59
2023/09/15 12:17:45;;;;;;;7.25;2.40;;;25.70;71.20;;;;;;5009815;28;20037;-58
2023/09/15 12:20:12;;;;;;;6.70;2.38;;;25.70;70.80;;;;;;5003339;28;20057;-60
2023/09/15 12:22:40;;;;;;;6.75;2.05;;;25.80;70.70;;;;;;5009408;28;20073;-60
2023/09/15 12:25:08;;;;;;;4.03;2.08;;;25.90;71.30;;;;;;4991572;28;20041;-61
2023/09/15 12:27:34;;;;;;;4.60;2.30;;;26.10;71.00;;;;;;5008708;28;20045;-59
2023/09/15 12:30:03;;;;;;;6.57;2.45;;;26.20;70.40;;;;;;4998105;28;20035;-60
2023/09/15 12:32:32;;;;;;;9.57;2.60;;;26.30;70.00;;;;;;5009859;28;20501;-61
2023/09/15 12:34:58;;;;;;;5.90;2.35;;;26.40;69.70;;;;;;5012418;28;20049;-60
2023/09/15 12:37:29;;;;;;;4.43;2.13;;;26.60;70.20;;;;;;5016623;28;20064;-61
2023/09/15 12:39:55;;;;;;;6.47;2.33;;;26.70;69.40;;;;;;5010532;28;20049;-61
2023/09/15 12:42:21;;;;;;;8.02;2.60;;;26.70;68.70;;;;;;5010584;28;20069;-59
2023/09/15 12:44:46;;;;;;;5.28;2.30;;;26.60;67.40;;;;;;4998328;28;20086;-60